Terminal Aerodrome Forecast
Issued by NWS

Home | Current Version | Previous Version | Text Only | Print | Product List | Glossary On
Versions: 1 2 3 4 5 6 7 8 9 10 11 12 13 14 15 16 17 18 19 20 21 22
430
FTUS41 KPBZ 301728
TAFZZV
TAF
KZZV 301728Z 3018/0118 09007KT P6SM VCSH BKN015
     FM010200 10004KT P6SM VCSH BKN015
     FM010800 12003KT P6SM BKN008
     FM011400 14003KT P6SM BKN015
     FM011700 16007KT P6SM BKN040=

USA.gov is the U.S. government's official web portal to all federal, state and local government web resources and services.